sensor_id;sensor_type;location;lat;lon;timestamp;P1;durP1;ratioP1;P2;durP2;ratioP2
5787;SDS011;2920;48.158;12.254;2023-07-13T00:00:10;5.43;;;2.78;;
5787;SDS011;2920;48.158;12.254;2023-07-13T00:02:36;4.03;;;3.10;;
5787;SDS011;2920;48.158;12.254;2023-07-13T00:05:01;4.45;;;2.92;;
5787;SDS011;2920;48.158;12.254;2023-07-13T00:07:26;7.45;;;4.20;;
5787;SDS011;2920;48.158;12.254;2023-07-13T00:09:52;4.78;;;2.92;;
5787;SDS011;2920;48.158;12.254;2023-07-13T00:12:25;7.35;;;3.17;;
5787;SDS011;2920;48.158;12.254;2023-07-13T00:14:52;4.53;;;2.58;;
5787;SDS011;2920;48.158;12.254;2023-07-13T00:17:18;3.80;;;2.67;;
5787;SDS011;2920;48.158;12.254;2023-07-13T00:19:43;5.43;;;3.40;;
5787;SDS011;2920;48.158;12.254;2023-07-13T00:22:08;7.40;;;4.03;;
5787;SDS011;2920;48.158;12.254;2023-07-13T00:24:33;5.43;;;3.28;;
5787;SDS011;2920;48.158;12.254;2023-07-13T00:27:01;5.68;;;3.67;;
5787;SDS011;2920;48.158;12.254;2023-07-13T00:29:26;4.63;;;3.30;;
5787;SDS011;2920;48.158;12.254;2023-07-13T00:31:51;4.72;;;3.53;;
5787;SDS011;2920;48.158;12.254;2023-07-13T00:34:17;4.80;;;3.17;;
5787;SDS011;2920;48.158;12.254;2023-07-13T00:36:42;4.68;;;3.58;;
5787;SDS011;2920;48.158;12.254;2023-07-13T00:39:07;4.85;;;3.20;;
5787;SDS011;2920;48.158;12.254;2023-07-13T00:41:33;4.40;;;2.92;;
5787;SDS011;2920;48.158;12.254;2023-07-13T00:43:59;4.00;;;3.05;;
5787;SDS011;2920;48.158;12.254;2023-07-13T00:46:28;10.05;;;3.22;;
5787;SDS011;2920;48.158;12.254;2023-07-13T00:48:56;7.05;;;3.15;;
5787;SDS011;2920;48.158;12.254;2023-07-13T00:51:27;4.72;;;3.28;;
5787;SDS011;2920;48.158;12.254;2023-07-13T00:53:58;4.38;;;3.40;;
5787;SDS011;2920;48.158;12.254;2023-07-13T00:56:25;3.65;;;2.40;;
5787;SDS011;2920;48.158;12.254;2023-07-13T00:58:51;3.97;;;2.65;;
5787;SDS011;2920;48.158;12.254;2023-07-13T01:01:17;4.20;;;2.72;;
5787;SDS011;2920;48.158;12.254;2023-07-13T01:03:43;3.97;;;2.95;;
5787;SDS011;2920;48.158;12.254;2023-07-13T01:06:08;4.70;;;2.92;;
5787;SDS011;2920;48.158;12.254;2023-07-13T01:08:34;7.10;;;2.88;;
5787;SDS011;2920;48.158;12.254;2023-07-13T01:10:59;4.93;;;3.40;;
5787;SDS011;2920;48.158;12.254;2023-07-13T01:13:25;4.25;;;3.00;;
5787;SDS011;2920;48.158;12.254;2023-07-13T01:15:51;6.05;;;2.67;;
5787;SDS011;2920;48.158;12.254;2023-07-13T01:18:18;8.38;;;3.17;;
5787;SDS011;2920;48.158;12.254;2023-07-13T01:20:50;5.68;;;3.03;;
5787;SDS011;2920;48.158;12.254;2023-07-13T01:23:16;6.07;;;3.33;;
5787;SDS011;2920;48.158;12.254;2023-07-13T01:25:41;5.93;;;2.65;;
5787;SDS011;2920;48.158;12.254;2023-07-13T01:28:07;4.05;;;2.72;;
5787;SDS011;2920;48.158;12.254;2023-07-13T01:30:36;3.53;;;2.70;;
5787;SDS011;2920;48.158;12.254;2023-07-13T01:33:05;4.90;;;2.70;;
5787;SDS011;2920;48.158;12.254;2023-07-13T01:35:32;6.57;;;3.17;;
5787;SDS011;2920;48.158;12.254;2023-07-13T01:37:57;5.20;;;3.22;;
5787;SDS011;2920;48.158;12.254;2023-07-13T01:40:23;4.60;;;2.78;;
5787;SDS011;2920;48.158;12.254;2023-07-13T01:42:48;3.92;;;2.80;;
5787;SDS011;2920;48.158;12.254;2023-07-13T01:45:13;10.52;;;3.15;;
5787;SDS011;2920;48.158;12.254;2023-07-13T01:47:39;4.20;;;2.85;;
5787;SDS011;2920;48.158;12.254;2023-07-13T01:50:05;3.60;;;2.90;;
5787;SDS011;2920;48.158;12.254;2023-07-13T01:52:30;5.13;;;3.30;;
5787;SDS011;2920;48.158;12.254;2023-07-13T01:54:55;4.22;;;2.47;;
5787;SDS011;2920;48.158;12.254;2023-07-13T01:57:21;3.80;;;2.35;;
5787;SDS011;2920;48.158;12.254;2023-07-13T01:59:46;7.05;;;2.88;;
5787;SDS011;2920;48.158;12.254;2023-07-13T02:02:11;9.88;;;2.97;;
5787;SDS011;2920;48.158;12.254;2023-07-13T02:04:37;5.70;;;2.25;;
5787;SDS011;2920;48.158;12.254;2023-07-13T02:07:02;3.83;;;2.63;;
5787;SDS011;2920;48.158;12.254;2023-07-13T02:09:28;11.18;;;3.38;;
5787;SDS011;2920;48.158;12.254;2023-07-13T02:11:53;5.40;;;3.17;;
5787;SDS011;2920;48.158;12.254;2023-07-13T02:14:18;3.50;;;2.60;;
5787;SDS011;2920;48.158;12.254;2023-07-13T02:16:44;9.63;;;3.08;;
5787;SDS011;2920;48.158;12.254;2023-07-13T02:19:09;9.95;;;2.63;;
5787;SDS011;2920;48.158;12.254;2023-07-13T02:21:34;7.97;;;2.90;;
5787;SDS011;2920;48.158;12.254;2023-07-13T02:24:00;9.63;;;3.55;;
5787;SDS011;2920;48.158;12.254;2023-07-13T02:26:25;5.00;;;2.83;;
5787;SDS011;2920;48.158;12.254;2023-07-13T02:28:51;8.77;;;2.97;;
5787;SDS011;2920;48.158;12.254;2023-07-13T02:31:17;5.95;;;2.95;;
5787;SDS011;2920;48.158;12.254;2023-07-13T02:33:42;5.45;;;2.55;;
5787;SDS011;2920;48.158;12.254;2023-07-13T02:36:08;2.83;;;2.10;;
5787;SDS011;2920;48.158;12.254;2023-07-13T02:38:34;5.13;;;2.47;;
5787;SDS011;2920;48.158;12.254;2023-07-13T02:41:01;5.82;;;3.00;;
5787;SDS011;2920;48.158;12.254;2023-07-13T02:43:26;4.93;;;2.88;;
5787;SDS011;2920;48.158;12.254;2023-07-13T02:45:52;3.47;;;2.40;;
5787;SDS011;2920;48.158;12.254;2023-07-13T02:48:17;6.00;;;2.70;;
5787;SDS011;2920;48.158;12.254;2023-07-13T02:50:43;3.75;;;2.75;;
5787;SDS011;2920;48.158;12.254;2023-07-13T02:53:09;5.97;;;3.00;;
5787;SDS011;2920;48.158;12.254;2023-07-13T02:55:34;5.22;;;3.13;;
5787;SDS011;2920;48.158;12.254;2023-07-13T02:58:00;6.32;;;3.03;;
5787;SDS011;2920;48.158;12.254;2023-07-13T03:00:26;5.28;;;2.70;;
5787;SDS011;2920;48.158;12.254;2023-07-13T03:02:51;6.63;;;3.15;;
5787;SDS011;2920;48.158;12.254;2023-07-13T03:05:17;7.65;;;2.97;;
5787;SDS011;2920;48.158;12.254;2023-07-13T03:07:43;4.13;;;2.65;;
5787;SDS011;2920;48.158;12.254;2023-07-13T03:10:09;4.63;;;3.17;;
5787;SDS011;2920;48.158;12.254;2023-07-13T03:12:34;4.50;;;2.88;;
5787;SDS011;2920;48.158;12.254;2023-07-13T03:14:59;3.60;;;3.00;;
5787;SDS011;2920;48.158;12.254;2023-07-13T03:17:25;5.68;;;3.03;;
5787;SDS011;2920;48.158;12.254;2023-07-13T03:19:50;4.15;;;2.60;;
5787;SDS011;2920;48.158;12.254;2023-07-13T03:22:17;4.63;;;3.20;;
5787;SDS011;2920;48.158;12.254;2023-07-13T03:24:43;3.78;;;2.55;;
5787;SDS011;2920;48.158;12.254;2023-07-13T03:27:08;6.93;;;2.80;;
5787;SDS011;2920;48.158;12.254;2023-07-13T03:29:34;3.05;;;2.03;;
5787;SDS011;2920;48.158;12.254;2023-07-13T03:31:59;4.45;;;2.33;;
5787;SDS011;2920;48.158;12.254;2023-07-13T03:34:24;4.00;;;2.90;;
5787;SDS011;2920;48.158;12.254;2023-07-13T03:36:50;3.78;;;2.20;;
5787;SDS011;2920;48.158;12.254;2023-07-13T03:39:15;5.70;;;2.47;;
5787;SDS011;2920;48.158;12.254;2023-07-13T03:41:40;8.40;;;2.42;;
5787;SDS011;2920;48.158;12.254;2023-07-13T03:44:06;4.53;;;2.85;;
5787;SDS011;2920;48.158;12.254;2023-07-13T03:46:31;5.65;;;2.97;;
5787;SDS011;2920;48.158;12.254;2023-07-13T03:48:58;5.70;;;2.80;;
5787;SDS011;2920;48.158;12.254;2023-07-13T03:51:24;4.32;;;2.70;;
5787;SDS011;2920;48.158;12.254;2023-07-13T03:53:49;3.90;;;2.65;;
5787;SDS011;2920;48.158;12.254;2023-07-13T03:56:15;3.95;;;2.67;;
5787;SDS011;2920;48.158;12.254;2023-07-13T03:58:42;5.50;;;3.10;;
5787;SDS011;2920;48.158;12.254;2023-07-13T04:01:08;7.35;;;2.75;;
5787;SDS011;2920;48.158;12.254;2023-07-13T04:03:35;5.25;;;2.70;;
5787;SDS011;2920;48.158;12.254;2023-07-13T04:06:01;4.10;;;2.70;;
5787;SDS011;2920;48.158;12.254;2023-07-13T04:08:28;5.03;;;3.25;;
5787;SDS011;2920;48.158;12.254;2023-07-13T04:10:54;4.10;;;2.60;;
5787;SDS011;2920;48.158;12.254;2023-07-13T04:13:20;5.25;;;3.03;;
5787;SDS011;2920;48.158;12.254;2023-07-13T04:15:45;7.10;;;2.70;;
5787;SDS011;2920;48.158;12.254;2023-07-13T04:18:11;3.38;;;2.60;;
5787;SDS011;2920;48.158;12.254;2023-07-13T04:20:36;5.95;;;2.80;;
5787;SDS011;2920;48.158;12.254;2023-07-13T04:23:01;6.38;;;3.10;;
5787;SDS011;2920;48.158;12.254;2023-07-13T04:25:27;4.75;;;3.25;;
5787;SDS011;2920;48.158;12.254;2023-07-13T04:27:52;8.55;;;3.50;;
5787;SDS011;2920;48.158;12.254;2023-07-13T04:30:18;6.38;;;2.80;;
5787;SDS011;2920;48.158;12.254;2023-07-13T04:32:44;4.10;;;2.88;;
5787;SDS011;2920;48.158;12.254;2023-07-13T04:35:09;3.13;;;2.47;;
5787;SDS011;2920;48.158;12.254;2023-07-13T04:37:35;7.70;;;3.20;;
5787;SDS011;2920;48.158;12.254;2023-07-13T04:40:00;4.68;;;3.17;;
5787;SDS011;2920;48.158;12.254;2023-07-13T04:42:26;3.65;;;2.85;;
5787;SDS011;2920;48.158;12.254;2023-07-13T04:44:51;10.55;;;3.75;;
5787;SDS011;2920;48.158;12.254;2023-07-13T04:47:20;7.75;;;3.67;;
5787;SDS011;2920;48.158;12.254;2023-07-13T04:49:45;6.07;;;3.83;;
5787;SDS011;2920;48.158;12.254;2023-07-13T04:52:11;5.45;;;3.30;;
5787;SDS011;2920;48.158;12.254;2023-07-13T04:54:37;6.28;;;3.45;;
5787;SDS011;2920;48.158;12.254;2023-07-13T04:57:02;6.07;;;3.70;;
5787;SDS011;2920;48.158;12.254;2023-07-13T04:59:31;6.97;;;3.65;;
5787;SDS011;2920;48.158;12.254;2023-07-13T05:01:57;4.00;;;3.08;;
5787;SDS011;2920;48.158;12.254;2023-07-13T05:04:23;5.80;;;3.28;;
5787;SDS011;2920;48.158;12.254;2023-07-13T05:06:48;7.95;;;3.63;;
5787;SDS011;2920;48.158;12.254;2023-07-13T05:09:13;4.57;;;3.13;;
5787;SDS011;2920;48.158;12.254;2023-07-13T05:11:38;9.65;;;3.05;;
5787;SDS011;2920;48.158;12.254;2023-07-13T05:14:04;5.10;;;2.75;;
5787;SDS011;2920;48.158;12.254;2023-07-13T05:16:30;4.47;;;2.92;;
5787;SDS011;2920;48.158;12.254;2023-07-13T05:18:56;6.07;;;3.15;;
5787;SDS011;2920;48.158;12.254;2023-07-13T05:21:22;3.90;;;2.88;;
5787;SDS011;2920;48.158;12.254;2023-07-13T05:23:47;5.03;;;3.38;;
5787;SDS011;2920;48.158;12.254;2023-07-13T05:26:13;7.18;;;3.35;;
5787;SDS011;2920;48.158;12.254;2023-07-13T05:28:38;4.70;;;2.90;;
5787;SDS011;2920;48.158;12.254;2023-07-13T05:31:04;5.38;;;3.15;;
5787;SDS011;2920;48.158;12.254;2023-07-13T05:33:30;6.60;;;3.03;;
5787;SDS011;2920;48.158;12.254;2023-07-13T05:35:55;4.20;;;3.22;;
5787;SDS011;2920;48.158;12.254;2023-07-13T05:38:21;4.25;;;3.20;;
5787;SDS011;2920;48.158;12.254;2023-07-13T05:40:46;4.72;;;2.88;;
5787;SDS011;2920;48.158;12.254;2023-07-13T05:43:12;6.07;;;2.83;;
5787;SDS011;2920;48.158;12.254;2023-07-13T05:45:38;5.57;;;3.22;;
5787;SDS011;2920;48.158;12.254;2023-07-13T05:48:03;4.57;;;3.40;;
5787;SDS011;2920;48.158;12.254;2023-07-13T05:50:28;5.95;;;2.90;;
5787;SDS011;2920;48.158;12.254;2023-07-13T05:52:54;7.43;;;3.05;;
5787;SDS011;2920;48.158;12.254;2023-07-13T05:55:19;4.18;;;2.70;;
5787;SDS011;2920;48.158;12.254;2023-07-13T05:57:45;5.40;;;2.90;;
5787;SDS011;2920;48.158;12.254;2023-07-13T06:00:10;6.53;;;3.00;;
5787;SDS011;2920;48.158;12.254;2023-07-13T06:02:36;4.18;;;3.00;;
5787;SDS011;2920;48.158;12.254;2023-07-13T06:05:02;5.60;;;3.38;;
5787;SDS011;2920;48.158;12.254;2023-07-13T06:07:27;5.90;;;3.08;;
5787;SDS011;2920;48.158;12.254;2023-07-13T06:09:52;4.60;;;2.80;;
5787;SDS011;2920;48.158;12.254;2023-07-13T06:12:18;6.35;;;3.20;;
5787;SDS011;2920;48.158;12.254;2023-07-13T06:14:43;4.28;;;2.83;;
5787;SDS011;2920;48.158;12.254;2023-07-13T06:17:08;5.25;;;3.17;;
5787;SDS011;2920;48.158;12.254;2023-07-13T06:19:34;5.25;;;3.13;;
5787;SDS011;2920;48.158;12.254;2023-07-13T06:21:59;4.68;;;2.92;;
5787;SDS011;2920;48.158;12.254;2023-07-13T06:24:25;6.85;;;2.78;;
5787;SDS011;2920;48.158;12.254;2023-07-13T06:26:50;5.60;;;2.85;;
5787;SDS011;2920;48.158;12.254;2023-07-13T06:29:15;5.30;;;2.95;;
5787;SDS011;2920;48.158;12.254;2023-07-13T06:31:41;3.58;;;2.72;;
5787;SDS011;2920;48.158;12.254;2023-07-13T06:34:06;5.72;;;3.28;;
5787;SDS011;2920;48.158;12.254;2023-07-13T06:36:32;3.47;;;2.60;;
5787;SDS011;2920;48.158;12.254;2023-07-13T06:38:57;4.18;;;2.83;;
5787;SDS011;2920;48.158;12.254;2023-07-13T06:41:22;3.90;;;2.70;;
5787;SDS011;2920;48.158;12.254;2023-07-13T06:43:50;5.28;;;3.10;;
5787;SDS011;2920;48.158;12.254;2023-07-13T06:46:16;4.18;;;2.95;;
5787;SDS011;2920;48.158;12.254;2023-07-13T06:48:41;4.22;;;2.92;;
5787;SDS011;2920;48.158;12.254;2023-07-13T06:51:07;4.75;;;2.85;;
5787;SDS011;2920;48.158;12.254;2023-07-13T06:53:33;5.57;;;2.95;;
5787;SDS011;2920;48.158;12.254;2023-07-13T06:55:58;3.78;;;2.75;;
5787;SDS011;2920;48.158;12.254;2023-07-13T06:58:23;4.20;;;3.00;;
5787;SDS011;2920;48.158;12.254;2023-07-13T07:00:50;3.58;;;2.47;;
5787;SDS011;2920;48.158;12.254;2023-07-13T07:03:16;5.47;;;3.20;;
5787;SDS011;2920;48.158;12.254;2023-07-13T07:05:42;6.35;;;3.47;;
5787;SDS011;2920;48.158;12.254;2023-07-13T07:08:07;6.32;;;3.42;;
5787;SDS011;2920;48.158;12.254;2023-07-13T07:10:33;4.85;;;2.97;;
5787;SDS011;2920;48.158;12.254;2023-07-13T07:12:58;5.45;;;2.55;;
5787;SDS011;2920;48.158;12.254;2023-07-13T07:15:24;4.05;;;2.85;;
5787;SDS011;2920;48.158;12.254;2023-07-13T07:17:50;5.40;;;2.80;;
5787;SDS011;2920;48.158;12.254;2023-07-13T07:20:15;6.65;;;4.07;;
5787;SDS011;2920;48.158;12.254;2023-07-13T07:22:40;5.20;;;2.85;;
5787;SDS011;2920;48.158;12.254;2023-07-13T07:25:05;4.05;;;2.38;;
5787;SDS011;2920;48.158;12.254;2023-07-13T07:27:31;5.75;;;3.80;;
5787;SDS011;2920;48.158;12.254;2023-07-13T07:29:57;3.47;;;2.50;;
5787;SDS011;2920;48.158;12.254;2023-07-13T07:32:23;4.18;;;3.13;;
5787;SDS011;2920;48.158;12.254;2023-07-13T07:34:48;5.75;;;3.50;;
5787;SDS011;2920;48.158;12.254;2023-07-13T07:37:14;4.18;;;2.30;;
5787;SDS011;2920;48.158;12.254;2023-07-13T07:39:39;5.80;;;2.75;;
5787;SDS011;2920;48.158;12.254;2023-07-13T07:42:05;6.32;;;2.88;;
5787;SDS011;2920;48.158;12.254;2023-07-13T07:44:31;7.78;;;3.30;;
5787;SDS011;2920;48.158;12.254;2023-07-13T07:46:56;4.70;;;2.92;;
5787;SDS011;2920;48.158;12.254;2023-07-13T07:49:22;4.38;;;2.60;;
5787;SDS011;2920;48.158;12.254;2023-07-13T07:51:47;9.50;;;2.92;;
5787;SDS011;2920;48.158;12.254;2023-07-13T07:54:13;4.28;;;2.95;;
5787;SDS011;2920;48.158;12.254;2023-07-13T07:56:39;5.20;;;3.08;;
5787;SDS011;2920;48.158;12.254;2023-07-13T07:59:05;3.97;;;2.70;;
5787;SDS011;2920;48.158;12.254;2023-07-13T08:01:30;4.85;;;2.65;;
5787;SDS011;2920;48.158;12.254;2023-07-13T08:03:55;6.78;;;3.47;;
5787;SDS011;2920;48.158;12.254;2023-07-13T08:06:21;8.38;;;3.78;;
5787;SDS011;2920;48.158;12.254;2023-07-13T08:08:46;4.55;;;3.08;;
5787;SDS011;2920;48.158;12.254;2023-07-13T08:11:12;4.40;;;2.80;;
5787;SDS011;2920;48.158;12.254;2023-07-13T08:13:37;5.57;;;3.22;;
5787;SDS011;2920;48.158;12.254;2023-07-13T08:16:06;3.63;;;2.75;;
5787;SDS011;2920;48.158;12.254;2023-07-13T08:18:31;4.20;;;2.90;;
5787;SDS011;2920;48.158;12.254;2023-07-13T08:20:57;3.72;;;2.60;;
5787;SDS011;2920;48.158;12.254;2023-07-13T08:23:23;7.50;;;3.30;;
5787;SDS011;2920;48.158;12.254;2023-07-13T08:25:52;5.53;;;2.75;;
5787;SDS011;2920;48.158;12.254;2023-07-13T08:28:19;4.60;;;3.00;;
5787;SDS011;2920;48.158;12.254;2023-07-13T08:30:45;3.78;;;2.63;;
5787;SDS011;2920;48.158;12.254;2023-07-13T08:33:13;4.55;;;3.13;;
5787;SDS011;2920;48.158;12.254;2023-07-13T08:35:42;6.03;;;2.97;;
5787;SDS011;2920;48.158;12.254;2023-07-13T08:38:07;3.60;;;2.53;;
5787;SDS011;2920;48.158;12.254;2023-07-13T08:40:33;4.55;;;2.75;;
5787;SDS011;2920;48.158;12.254;2023-07-13T08:42:59;4.95;;;3.38;;
5787;SDS011;2920;48.158;12.254;2023-07-13T08:51:31;6.38;;;2.83;;
5787;SDS011;2920;48.158;12.254;2023-07-13T08:53:48;5.78;;;2.65;;
5787;SDS011;2920;48.158;12.254;2023-07-13T08:56:24;4.82;;;3.17;;
5787;SDS011;2920;48.158;12.254;2023-07-13T08:58:53;8.63;;;3.25;;
5787;SDS011;2920;48.158;12.254;2023-07-13T09:01:32;3.92;;;2.83;;
5787;SDS011;2920;48.158;12.254;2023-07-13T09:04:02;5.55;;;3.03;;
5787;SDS011;2920;48.158;12.254;2023-07-13T09:07:01;5.57;;;3.45;;
5787;SDS011;2920;48.158;12.254;2023-07-13T09:15:07;6.68;;;3.20;;
5787;SDS011;2920;48.158;12.254;2023-07-13T09:17:45;5.57;;;3.05;;
5787;SDS011;2920;48.158;12.254;2023-07-13T09:20:25;7.30;;;2.90;;
5787;SDS011;2920;48.158;12.254;2023-07-13T09:22:53;4.82;;;3.22;;
5787;SDS011;2920;48.158;12.254;2023-07-13T09:25:23;4.22;;;2.55;;
5787;SDS011;2920;48.158;12.254;2023-07-13T09:27:53;4.15;;;2.80;;
5787;SDS011;2920;48.158;12.254;2023-07-13T09:31:04;6.28;;;2.88;;
5787;SDS011;2920;48.158;12.254;2023-07-13T09:33:20;4.67;;;2.63;;
5787;SDS011;2920;48.158;12.254;2023-07-13T09:35:46;4.05;;;2.90;;
5787;SDS011;2920;48.158;12.254;2023-07-13T09:43:34;5.32;;;2.70;;
5787;SDS011;2920;48.158;12.254;2023-07-13T09:45:59;5.88;;;2.67;;
5787;SDS011;2920;48.158;12.254;2023-07-13T09:48:24;4.78;;;2.88;;
5787;SDS011;2920;48.158;12.254;2023-07-13T09:50:53;4.75;;;2.45;;
5787;SDS011;2920;48.158;12.254;2023-07-13T09:53:20;5.70;;;2.40;;
5787;SDS011;2920;48.158;12.254;2023-07-13T09:55:46;5.13;;;2.47;;
5787;SDS011;2920;48.158;12.254;2023-07-13T09:58:13;3.83;;;2.58;;
5787;SDS011;2920;48.158;12.254;2023-07-13T10:00:53;5.45;;;2.50;;
5787;SDS011;2920;48.158;12.254;2023-07-13T10:03:24;4.57;;;2.70;;
5787;SDS011;2920;48.158;12.254;2023-07-13T10:05:51;6.43;;;2.50;;
5787;SDS011;2920;48.158;12.254;2023-07-13T10:11:02;4.90;;;2.43;;
5787;SDS011;2920;48.158;12.254;2023-07-13T10:13:40;6.28;;;2.60;;
5787;SDS011;2920;48.158;12.254;2023-07-13T10:16:08;5.07;;;2.50;;
5787;SDS011;2920;48.158;12.254;2023-07-13T10:18:39;6.60;;;2.50;;
5787;SDS011;2920;48.158;12.254;2023-07-13T10:21:12;4.88;;;2.95;;
5787;SDS011;2920;48.158;12.254;2023-07-13T10:23:53;5.93;;;2.42;;
5787;SDS011;2920;48.158;12.254;2023-07-13T10:26:27;4.88;;;2.63;;
5787;SDS011;2920;48.158;12.254;2023-07-13T10:28:56;4.20;;;2.72;;
5787;SDS011;2920;48.158;12.254;2023-07-13T10:31:22;6.07;;;2.47;;
5787;SDS011;2920;48.158;12.254;2023-07-13T10:33:48;6.57;;;2.60;;
5787;SDS011;2920;48.158;12.254;2023-07-13T10:36:28;5.15;;;2.28;;
5787;SDS011;2920;48.158;12.254;2023-07-13T10:39:21;4.13;;;2.20;;
5787;SDS011;2920;48.158;12.254;2023-07-13T10:42:01;7.10;;;2.38;;
5787;SDS011;2920;48.158;12.254;2023-07-13T10:44:31;4.65;;;2.40;;
5787;SDS011;2920;48.158;12.254;2023-07-13T10:46:57;6.45;;;2.50;;
5787;SDS011;2920;48.158;12.254;2023-07-13T10:49:26;4.13;;;2.00;;
5787;SDS011;2920;48.158;12.254;2023-07-13T10:51:52;5.50;;;1.95;;
5787;SDS011;2920;48.158;12.254;2023-07-13T10:54:19;2.78;;;2.10;;
5787;SDS011;2920;48.158;12.254;2023-07-13T10:56:53;4.90;;;1.90;;
5787;SDS011;2920;48.158;12.254;2023-07-13T10:59:39;2.60;;;1.83;;
5787;SDS011;2920;48.158;12.254;2023-07-13T11:04:47;4.15;;;1.70;;
5787;SDS011;2920;48.158;12.254;2023-07-13T11:07:20;5.15;;;2.17;;
5787;SDS011;2920;48.158;12.254;2023-07-13T11:09:51;3.97;;;1.85;;
5787;SDS011;2920;48.158;12.254;2023-07-13T11:17:33;6.28;;;2.00;;
5787;SDS011;2920;48.158;12.254;2023-07-13T11:20:38;3.35;;;1.77;;
5787;SDS011;2920;48.158;12.254;2023-07-13T11:25:33;4.43;;;1.60;;
5787;SDS011;2920;48.158;12.254;2023-07-13T11:28:07;3.85;;;1.90;;
5787;SDS011;2920;48.158;12.254;2023-07-13T11:30:38;3.15;;;1.42;;
5787;SDS011;2920;48.158;12.254;2023-07-13T11:33:20;5.55;;;1.70;;
5787;SDS011;2920;48.158;12.254;2023-07-13T11:38:43;2.03;;;1.70;;
5787;SDS011;2920;48.158;12.254;2023-07-13T11:41:19;6.85;;;1.70;;
5787;SDS011;2920;48.158;12.254;2023-07-13T11:43:50;3.63;;;1.58;;
5787;SDS011;2920;48.158;12.254;2023-07-13T11:46:22;6.57;;;2.00;;
5787;SDS011;2920;48.158;12.254;2023-07-13T11:48:49;3.72;;;1.75;;
5787;SDS011;2920;48.158;12.254;2023-07-13T11:51:22;3.28;;;1.90;;
5787;SDS011;2920;48.158;12.254;2023-07-13T11:53:51;2.47;;;1.50;;
5787;SDS011;2920;48.158;12.254;2023-07-13T11:56:18;4.55;;;1.63;;
5787;SDS011;2920;48.158;12.254;2023-07-13T11:58:43;1.88;;;1.30;;
5787;SDS011;2920;48.158;12.254;2023-07-13T12:01:15;3.15;;;1.90;;
5787;SDS011;2920;48.158;12.254;2023-07-13T12:03:43;4.20;;;1.52;;
5787;SDS011;2920;48.158;12.254;2023-07-13T12:06:25;3.63;;;1.48;;
5787;SDS011;2920;48.158;12.254;2023-07-13T12:09:01;4.15;;;1.67;;
5787;SDS011;2920;48.158;12.254;2023-07-13T12:11:28;5.57;;;1.88;;
5787;SDS011;2920;48.158;12.254;2023-07-13T12:13:54;2.25;;;1.40;;
5787;SDS011;2920;48.158;12.254;2023-07-13T12:16:30;2.78;;;1.50;;
5787;SDS011;2920;48.158;12.254;2023-07-13T12:18:57;3.47;;;1.90;;
5787;SDS011;2920;48.158;12.254;2023-07-13T12:21:27;2.70;;;1.60;;
5787;SDS011;2920;48.158;12.254;2023-07-13T12:23:58;3.35;;;1.55;;
5787;SDS011;2920;48.158;12.254;2023-07-13T12:26:24;1.88;;;1.38;;
5787;SDS011;2920;48.158;12.254;2023-07-13T12:28:51;2.78;;;2.05;;
5787;SDS011;2920;48.158;12.254;2023-07-13T12:33:59;6.22;;;1.98;;
5787;SDS011;2920;48.158;12.254;2023-07-13T12:36:32;5.05;;;1.83;;
5787;SDS011;2920;48.158;12.254;2023-07-13T12:39:04;5.95;;;1.73;;
5787;SDS011;2920;48.158;12.254;2023-07-13T12:41:37;2.73;;;1.60;;
5787;SDS011;2920;48.158;12.254;2023-07-13T12:44:03;2.35;;;1.63;;
5787;SDS011;2920;48.158;12.254;2023-07-13T12:46:28;4.45;;;1.83;;
5787;SDS011;2920;48.158;12.254;2023-07-13T12:48:54;2.42;;;1.70;;
5787;SDS011;2920;48.158;12.254;2023-07-13T12:51:26;3.67;;;1.48;;
5787;SDS011;2920;48.158;12.254;2023-07-13T12:56:43;4.07;;;1.60;;
5787;SDS011;2920;48.158;12.254;2023-07-13T12:59:11;3.40;;;1.60;;
5787;SDS011;2920;48.158;12.254;2023-07-13T13:01:42;2.88;;;1.55;;
5787;SDS011;2920;48.158;12.254;2023-07-13T13:04:08;4.13;;;1.77;;
5787;SDS011;2920;48.158;12.254;2023-07-13T13:06:36;2.83;;;1.95;;
5787;SDS011;2920;48.158;12.254;2023-07-13T13:09:03;3.03;;;1.60;;
5787;SDS011;2920;48.158;12.254;2023-07-13T13:11:29;3.30;;;1.65;;
5787;SDS011;2920;48.158;12.254;2023-07-13T13:13:55;5.82;;;1.90;;
5787;SDS011;2920;48.158;12.254;2023-07-13T13:16:31;3.33;;;1.65;;
5787;SDS011;2920;48.158;12.254;2023-07-13T13:21:44;4.30;;;2.25;;
5787;SDS011;2920;48.158;12.254;2023-07-13T13:24:11;5.65;;;2.00;;
5787;SDS011;2920;48.158;12.254;2023-07-13T13:26:37;5.68;;;1.90;;
5787;SDS011;2920;48.158;12.254;2023-07-13T13:29:09;3.60;;;1.65;;
5787;SDS011;2920;48.158;12.254;2023-07-13T13:34:11;3.35;;;1.75;;
5787;SDS011;2920;48.158;12.254;2023-07-13T13:36:38;2.72;;;1.92;;
5787;SDS011;2920;48.158;12.254;2023-07-13T13:39:08;5.18;;;1.92;;
5787;SDS011;2920;48.158;12.254;2023-07-13T13:44:09;4.93;;;1.83;;
5787;SDS011;2920;48.158;12.254;2023-07-13T13:46:34;2.65;;;1.85;;
5787;SDS011;2920;48.158;12.254;2023-07-13T13:49:00;5.13;;;1.60;;
5787;SDS011;2920;48.158;12.254;2023-07-13T13:51:26;3.40;;;1.98;;
5787;SDS011;2920;48.158;12.254;2023-07-13T13:53:51;5.30;;;1.80;;
5787;SDS011;2920;48.158;12.254;2023-07-13T13:56:18;1.77;;;1.38;;
5787;SDS011;2920;48.158;12.254;2023-07-13T13:58:44;3.67;;;2.20;;
5787;SDS011;2920;48.158;12.254;2023-07-13T14:01:14;2.22;;;1.50;;
5787;SDS011;2920;48.158;12.254;2023-07-13T14:03:42;2.22;;;1.60;;
5787;SDS011;2920;48.158;12.254;2023-07-13T14:06:08;2.05;;;1.60;;
5787;SDS011;2920;48.158;12.254;2023-07-13T14:08:37;2.53;;;1.50;;
5787;SDS011;2920;48.158;12.254;2023-07-13T14:11:02;4.38;;;1.70;;
5787;SDS011;2920;48.158;12.254;2023-07-13T14:13:28;2.63;;;1.90;;
5787;SDS011;2920;48.158;12.254;2023-07-13T14:16:01;4.05;;;1.90;;
5787;SDS011;2920;48.158;12.254;2023-07-13T14:18:26;6.60;;;2.10;;
5787;SDS011;2920;48.158;12.254;2023-07-13T14:20:51;3.17;;;1.73;;
5787;SDS011;2920;48.158;12.254;2023-07-13T14:23:20;2.38;;;1.60;;
5787;SDS011;2920;48.158;12.254;2023-07-13T14:25:46;3.28;;;2.03;;
5787;SDS011;2920;48.158;12.254;2023-07-13T14:28:17;1.98;;;1.73;;
5787;SDS011;2920;48.158;12.254;2023-07-13T14:30:46;5.30;;;1.73;;
5787;SDS011;2920;48.158;12.254;2023-07-13T14:33:12;2.55;;;1.77;;
5787;SDS011;2920;48.158;12.254;2023-07-13T14:35:37;2.88;;;1.90;;
5787;SDS011;2920;48.158;12.254;2023-07-13T14:38:03;3.35;;;1.52;;
5787;SDS011;2920;48.158;12.254;2023-07-13T14:40:29;2.53;;;1.70;;
5787;SDS011;2920;48.158;12.254;2023-07-13T14:42:56;4.60;;;1.75;;
5787;SDS011;2920;48.158;12.254;2023-07-13T14:45:22;2.75;;;1.80;;
5787;SDS011;2920;48.158;12.254;2023-07-13T14:47:47;4.97;;;1.92;;
5787;SDS011;2920;48.158;12.254;2023-07-13T14:52:42;6.65;;;1.85;;
5787;SDS011;2920;48.158;12.254;2023-07-13T14:55:12;2.33;;;1.90;;
5787;SDS011;2920;48.158;12.254;2023-07-13T14:57:39;3.75;;;1.70;;
5787;SDS011;2920;48.158;12.254;2023-07-13T15:00:08;3.55;;;2.20;;
5787;SDS011;2920;48.158;12.254;2023-07-13T15:02:38;7.38;;;1.90;;
5787;SDS011;2920;48.158;12.254;2023-07-13T15:05:12;5.25;;;1.85;;
5787;SDS011;2920;48.158;12.254;2023-07-13T15:07:39;3.80;;;2.00;;
5787;SDS011;2920;48.158;12.254;2023-07-13T15:10:12;4.70;;;1.77;;
5787;SDS011;2920;48.158;12.254;2023-07-13T15:12:39;4.45;;;1.77;;
5787;SDS011;2920;48.158;12.254;2023-07-13T15:15:04;2.60;;;1.70;;
5787;SDS011;2920;48.158;12.254;2023-07-13T15:17:35;4.65;;;1.90;;
5787;SDS011;2920;48.158;12.254;2023-07-13T15:20:04;2.38;;;1.73;;
5787;SDS011;2920;48.158;12.254;2023-07-13T15:24:56;3.33;;;2.03;;
5787;SDS011;2920;48.158;12.254;2023-07-13T15:27:22;9.82;;;1.70;;
5787;SDS011;2920;48.158;12.254;2023-07-13T15:29:47;4.85;;;2.25;;
5787;SDS011;2920;48.158;12.254;2023-07-13T15:32:13;3.55;;;1.85;;
5787;SDS011;2920;48.158;12.254;2023-07-13T15:34:39;4.88;;;1.80;;
5787;SDS011;2920;48.158;12.254;2023-07-13T15:37:13;2.65;;;1.70;;
5787;SDS011;2920;48.158;12.254;2023-07-13T15:39:40;2.25;;;1.55;;
5787;SDS011;2920;48.158;12.254;2023-07-13T15:42:05;3.70;;;1.90;;
5787;SDS011;2920;48.158;12.254;2023-07-13T15:44:31;3.13;;;1.63;;
5787;SDS011;2920;48.158;12.254;2023-07-13T15:46:56;3.33;;;1.80;;
5787;SDS011;2920;48.158;12.254;2023-07-13T15:49:22;2.63;;;1.52;;
5787;SDS011;2920;48.158;12.254;2023-07-13T15:51:47;4.45;;;1.80;;